Time;durP1;ratioP1;P1;durP2;ratioP2;P2;SDS_P1;SDS_P2;PMS_P1;PMS_P2;Temp;Humidity;BMP_temperature;BMP_pressure;BME280_temperature;BME280_humidity;BME280_pressure;Samples;Min_cycle;Max_cycle;Signal;HPM_P1;HPM_P2
2022/07/30 00:01:51;;;;;;;;;;;;;;;19.08;69.89;101800.44;5074718;28;20055;-36
2022/07/30 00:04:17;;;;;;;6.50;3.15;;;;;;;18.82;74.13;101791.22;5074309;28;20363;-36
2022/07/30 00:06:42;;;;;;;7.65;3.13;;;;;;;18.88;74.68;101798.38;5073980;28;20077;-36
2022/07/30 00:09:07;;;;;;;7.30;3.47;;;;;;;18.82;74.53;101786.56;5074122;28;20115;-36
2022/07/30 00:11:33;;;;;;;8.55;3.88;;;;;;;18.86;75.10;101806.06;5072721;28;20468;-36
2022/07/30 00:13:58;;;;;;;9.13;4.03;;;;;;;18.69;76.19;101798.81;5074124;28;20026;-36
2022/07/30 00:16:23;;;;;;;;;;;;;;;18.89;72.15;101800.88;5074570;28;20528;-36
2022/07/30 00:18:48;;;;;;;7.83;3.90;;;;;;;18.60;76.31;101789.41;5073916;28;19912;-36
2022/07/30 00:21:14;;;;;;;10.65;4.53;;;;;;;18.59;76.80;101792.38;5074138;28;20490;-36
2022/07/30 00:23:39;;;;;;;;;;;;;;;18.76;72.84;101788.47;5074273;28;20356;-36
2022/07/30 00:26:05;;;;;;;8.60;4.20;;;;;;;18.53;76.34;101778.66;5073806;28;20291;-36
2022/07/30 00:28:30;;;;;;;10.95;4.50;;;;;;;18.31;78.47;101788.88;5073548;28;20032;-36
2022/07/30 00:30:55;;;;;;;;;;;;;;;18.49;75.13;101783.00;5074433;28;20054;-36
2022/07/30 00:33:20;;;;;;;10.07;4.23;;;;;;;18.30;78.82;101784.50;5073927;28;19908;-36
2022/07/30 00:35:46;;;;;;;;;;;;;;;18.46;74.46;101782.72;5074821;28;20259;-36
2022/07/30 00:38:11;;;;;;;;;;;;;;;18.46;74.17;101790.94;5073958;28;19915;-36
2022/07/30 00:40:36;;;;;;;;;;;;;;;18.45;73.16;101781.88;5074707;28;19912;-36
2022/07/30 00:43:01;;;;;;;;;;;;;;;18.46;72.78;101783.53;5072555;28;19919;-36
2022/07/30 00:45:27;;;;;;;;;;;;;;;18.43;72.83;101795.00;5073547;28;19912;-36
2022/07/30 00:47:52;;;;;;;;;;;;;;;18.41;72.38;101793.63;5074306;28;19956;-36
2022/07/30 00:50:17;;;;;;;;;;;;;;;18.40;72.35;101792.81;5074508;28;19912;-36
2022/07/30 00:52:43;;;;;;;;;;;;;;;18.43;72.36;101794.19;5073794;28;19923;-36
2022/07/30 00:55:09;;;;;;;;;;;;;;;18.43;72.33;101792.25;5074155;28;20006;-36
2022/07/30 00:57:34;;;;;;;;;;;;;;;18.41;72.46;101780.75;5073955;28;19916;-36
2022/07/30 00:59:59;;;;;;;;;;;;;;;18.39;72.13;101788.38;5073837;28;20340;-36
2022/07/30 01:02:24;;;;;;;;;;;;;;;18.38;72.10;101783.19;5073644;28;19923;-36
2022/07/30 01:04:49;;;;;;;;;;;;;;;18.35;72.25;101789.16;5073844;28;19920;-36
2022/07/30 01:07:15;;;;;;;;;;;;;;;18.31;71.92;101783.41;5073786;28;19920;-35
2022/07/30 01:09:40;;;;;;;;;;;;;;;18.31;72.11;101785.31;5073652;28;19912;-36
2022/07/30 01:12:06;;;;;;;;;;;;;;;18.29;72.34;101782.81;5073466;28;19919;-36
2022/07/30 01:14:35;;;;;;;;;;;;;;;18.27;72.54;101779.53;5073346;28;19984;-36
2022/07/30 01:17:01;;;;;;;;;;;;;;;18.24;72.56;101775.38;5073113;28;20438;-36
2022/07/30 01:22:16;;;;;;;;;;;;;;;18.18;72.11;101772.88;5073712;28;20023;-36
2022/07/30 01:25:00;;;;;;;;;;;;;;;18.15;72.28;101770.63;5073388;28;19916;-36
2022/07/30 01:27:27;;;;;;;;;;;;;;;18.13;72.28;101776.38;5073557;28;19912;-36
2022/07/30 01:29:54;;;;;;;;;;;;;;;18.08;72.17;101775.50;5073208;28;19919;-36
2022/07/30 01:32:20;;;;;;;;;;;;;;;18.04;72.36;101777.94;5074042;28;19916;-36
2022/07/30 01:34:45;;;;;;;;;;;;;;;18.00;72.49;101774.06;5073259;28;20368;-36
2022/07/30 01:37:11;;;;;;;;;;;;;;;17.97;72.54;101788.28;5073278;28;19955;-36
2022/07/30 01:39:38;;;;;;;;;;;;;;;17.94;72.62;101775.09;5073013;28;19912;-36
2022/07/30 01:42:06;;;;;;;;;;;;;;;17.93;72.74;101778.91;5073183;28;20328;-36
2022/07/30 01:44:31;;;;;;;;;;;;;;;17.88;73.09;101773.41;5073419;28;20360;-35
2022/07/30 01:46:57;;;;;;;;;;;;;;;17.83;72.93;101776.06;5073007;28;19912;-35
2022/07/30 01:49:24;;;;;;;;;;;;;;;17.81;72.94;101778.22;5073105;28;19984;-35
2022/07/30 01:51:49;;;;;;;;;;;;;;;17.80;73.35;101779.31;5073326;28;19912;-36
2022/07/30 01:54:16;;;;;;;;;;;;;;;17.78;73.41;101784.22;5073561;28;19959;-36
2022/07/30 01:56:43;;;;;;;;;;;;;;;17.77;72.98;101779.84;5077036;28;20367;-35
2022/07/30 01:59:09;;;;;;;;;;;;;;;17.74;73.49;101787.47;5076728;28;19919;-36
2022/07/30 02:01:34;;;;;;;;;;;;;;;17.72;73.26;101794.25;5077103;28;19912;-36
2022/07/30 02:04:01;;;;;;;;;;;;;;;17.70;73.40;101786.28;5077340;28;20252;-35
2022/07/30 02:06:31;;;;;;;;;;;;;;;17.67;73.29;101786.81;5077444;28;19912;-36
2022/07/30 02:08:58;;;;;;;;;;;;;;;17.66;73.43;101789.78;5077684;28;19912;-36
2022/07/30 02:14:11;;;;;;;;;;;;;;;17.60;73.52;101788.06;5076873;28;20387;-36
2022/07/30 02:16:39;;;;;;;;;;;;;;;17.57;73.80;101789.44;5077511;28;19955;-35
2022/07/30 02:19:08;;;;;;;;;;;;;;;17.54;74.02;101781.72;5076527;28;19912;-36
2022/07/30 02:21:37;;;;;;;;;;;;;;;17.51;73.94;101798.63;5077454;28;19916;-36
2022/07/30 02:24:04;;;;;;;;;;;;;;;17.47;74.06;101801.06;5076403;28;19919;-36
2022/07/30 02:26:30;;;;;;;;;;;;;;;17.45;74.00;101791.44;5077063;28;19940;-36
2022/07/30 02:28:56;;;;;;;;;;;;;;;17.41;74.12;101793.03;5076542;28;19963;-36
2022/07/30 02:31:23;;;;;;;;;;;;;;;17.36;74.83;101796.53;5076746;28;20019;-36
2022/07/30 02:33:49;;;;;;;;;;;;;;;17.34;74.04;101792.41;5076385;28;19913;-38
2022/07/30 02:36:16;;;;;;;;;;;;;;;17.32;74.36;101787.16;5076886;28;19919;-36
2022/07/30 02:38:42;;;;;;;;;;;;;;;17.29;74.80;101789.59;5076272;28;20008;-36
2022/07/30 02:41:08;;;;;;;;;;;;;;;17.24;74.49;101788.44;5076735;28;19960;-36
2022/07/30 02:43:34;;;;;;;;;;;;;;;17.21;74.54;101793.59;5075882;28;19916;-36
2022/07/30 02:46:00;;;;;;;;;;;;;;;17.17;74.74;101796.00;5076935;28;19912;-36
2022/07/30 02:48:26;;;;;;;;;;;;;;;17.14;74.84;101795.69;5076383;28;19912;-36
2022/07/30 02:50:52;;;;;;;;;;;;;;;17.09;75.13;101799.19;5076353;28;20265;-36
2022/07/30 02:53:18;;;;;;;;;;;;;;;17.07;74.92;101789.56;5076230;28;20264;-36
2022/07/30 02:55:44;;;;;;;;;;;;;;;17.04;74.82;101788.16;5076126;28;19916;-36
2022/07/30 02:58:10;;;;;;;;;;;;;;;17.04;75.24;101790.09;5076376;28;19924;-36
2022/07/30 03:00:35;;;;;;;;;;;;;;;17.03;75.27;101799.31;5075930;28;19912;-36
2022/07/30 03:03:03;;;;;;;;;;;;;;;17.01;75.40;101790.56;5076068;28;19923;-36
2022/07/30 03:05:29;;;;;;;;;;;;;;;16.98;75.34;101800.06;5075662;28;19952;-36
2022/07/30 03:07:56;;;;;;;;;;;;;;;16.95;75.41;101800.59;5075835;28;19966;-36
2022/07/30 03:10:23;;;;;;;;;;;;;;;16.93;76.16;101802.75;5076226;28;20324;-36
2022/07/30 03:12:49;;;;;;;;;;;;;;;16.88;75.87;101805.41;5075365;28;19912;-36
2022/07/30 03:15:14;;;;;;;;;;;;;;;16.86;75.85;101807.56;5075469;28;19966;-36
2022/07/30 03:17:42;;;;;;;;;;;;;;;16.84;75.47;101805.09;5075616;28;19912;-36
2022/07/30 03:20:09;;;;;;;;;;;;;;;16.83;75.57;101808.03;5075788;28;20325;-36
2022/07/30 03:22:38;;;;;;;;;;;;;;;16.78;75.82;101811.53;5075434;28;19912;-36
2022/07/30 03:25:04;;;;;;;;;;;;;;;16.74;75.94;101804.94;5075142;28;20011;-36
2022/07/30 03:27:30;;;;;;;;;;;;;;;16.72;76.21;101807.88;5075445;28;19977;-36
2022/07/30 03:29:56;;;;;;;;;;;;;;;16.68;76.05;101801.22;5075588;28;20328;-36
2022/07/30 03:32:21;;;;;;;;;;;;;;;16.65;75.94;101801.75;5075228;28;20049;-36
2022/07/30 03:34:47;;;;;;;;;;;;;;;16.62;76.21;101798.69;5075715;28;19912;-36
2022/07/30 03:37:13;;;;;;;;;;;;;;;16.60;76.27;101803.56;5075461;28;19916;-36
2022/07/30 03:39:39;;;;;;;;;;;;;;;16.57;76.61;101802.16;5075389;28;19912;-36
2022/07/30 03:42:06;;;;;;;;;;;;;;;16.55;76.56;101803.50;5074818;28;19913;-36
2022/07/30 03:44:32;;;;;;;;;;;;;;;16.54;76.20;101801.81;5074857;28;19912;-36
2022/07/30 03:46:58;;;;;;;;;;;;;;;16.52;76.47;101813.00;5073927;28;19912;-36
2022/07/30 03:49:24;;;;;;;;;;;;;;;16.50;76.48;101815.16;5075156;28;20298;-36
2022/07/30 03:51:51;;;;;;;;;;;;;;;16.50;76.46;101817.88;5074799;28;20357;-36
2022/07/30 03:54:16;;;;;;;;;;;;;;;16.45;76.44;101815.06;5075411;28;20323;-36
2022/07/30 03:56:41;;;;;;;;;;;;;;;16.41;76.70;101822.91;5074725;28;19916;-36
2022/07/30 03:59:07;;;;;;;;;;;;;;;16.37;76.66;101820.91;5074722;28;20409;-36
2022/07/30 04:01:33;;;;;;;;;;;;;;;16.34;76.79;101821.41;5074936;28;20295;-36
2022/07/30 04:04:07;;;;;;;;;;;;;;;16.26;77.02;101824.53;5074755;28;19912;-36
2022/07/30 04:06:38;;;;;;;;;;;;;;;16.24;77.38;101832.97;5075203;28;20379;-36
2022/07/30 04:09:03;;;;;;;;;;;;;;;16.23;77.05;101837.59;5074480;28;19932;-36
2022/07/30 04:11:29;;;;;;;;;;;;;;;16.24;77.03;101838.41;5075070;28;19935;-36
2022/07/30 04:13:54;;;;;;;;;;;;;;;16.23;76.96;101843.03;5074623;28;19912;-35
2022/07/30 04:16:24;;;;;;;;;;;;;;;16.22;77.10;101837.84;5074035;28;19912;-35
2022/07/30 04:18:52;;;;;;;;;;;;;;;16.15;77.08;101834.41;5074445;28;19919;-36
2022/07/30 04:21:19;;;;;;;;;;;;;;;16.09;77.10;101841.69;5074650;28;20006;-35
2022/07/30 04:23:46;;;;;;;;;;;;;;;16.08;77.64;101850.13;5074949;28;19912;-36
2022/07/30 04:26:12;;;;;;;;;;;;;;;16.07;77.33;101846.56;5074732;28;20357;-36
2022/07/30 04:28:37;;;;;;;;;;;;;;;16.08;77.63;101844.66;5073892;28;19922;-36
2022/07/30 04:31:04;;;;;;;;;;;;;;;16.09;77.93;101847.13;5074653;28;19916;-36
2022/07/30 04:33:29;;;;;;;;;;;;;;;16.09;77.46;101844.41;5074030;28;19913;-36
2022/07/30 04:35:54;;;;;;;;;;;;;;;16.09;77.75;101851.78;5074532;28;19919;-36
2022/07/30 04:38:19;;;;;;;;;;;;;;;16.11;78.27;101849.66;5074300;28;19912;-36
2022/07/30 04:40:45;;;;;;;;;;;;;;;16.12;77.90;101846.66;5073945;28;20011;-36
2022/07/30 04:43:10;;;;;;;;;;;;;;;16.14;77.83;101852.69;5072813;28;20003;-36
2022/07/30 04:45:37;;;;;;;;;;;;;;;16.17;78.04;101865.03;5073828;28;19912;-36
2022/07/30 04:48:02;;;;;;;;;;;;;;;16.18;78.62;101859.31;5074035;28;19916;-36
2022/07/30 04:50:28;;;;;;;;;;;;;;;16.19;77.70;101869.16;5073761;28;19965;-36
2022/07/30 04:52:56;;;;;;;;;;;;;;;16.19;78.10;101857.41;5073705;28;20011;-36
2022/07/30 04:55:22;;;;;;;;;;;;;;;16.22;77.66;101865.13;5074501;28;19916;-36
2022/07/30 04:57:49;;;;;;;;;;;;;;;16.27;78.02;101870.69;5074092;28;20383;-36
2022/07/30 05:00:14;;;;;;;;;;;;;;;16.31;78.12;101871.84;5073840;28;19917;-36
2022/07/30 05:02:40;;;;;;;;;;;;;;;16.33;77.96;101866.97;5073528;28;19936;-36
2022/07/30 05:05:07;;;;;;;;;;;;;;;16.37;78.03;101872.78;5073476;28;20011;-36
2022/07/30 05:07:32;;;;;;;;;;;;;;;16.41;78.14;101877.50;5073167;28;20459;-36
2022/07/30 05:09:58;;;;;;;;;;;;;;;16.45;78.16;101870.50;5073510;28;20002;-36
2022/07/30 05:12:32;;;;;;;;;;;;;;;16.50;78.26;101877.94;5073436;28;20267;-36
2022/07/30 05:14:58;;;;;;;;;;;;;;;16.54;78.63;101870.88;5073538;28;19912;-36
2022/07/30 05:17:23;;;;;;;;;;;;;;;16.58;78.81;101861.13;5073033;28;19950;-36
2022/07/30 05:19:48;;;;;;;;;;;;;;;16.64;78.94;101870.25;5073995;28;19913;-36
2022/07/30 05:22:13;;;;;;;;;;;;;;;16.66;78.75;101870.84;5073338;28;19973;-36
2022/07/30 05:24:38;;;;;;;;;;;;;;;16.70;78.03;101875.56;5072315;28;19912;-36
2022/07/30 05:27:04;;;;;;;;;;;;;;;16.77;78.79;101874.59;5073858;28;20053;-36
2022/07/30 05:29:29;;;;;;;;;;;;;;;16.84;78.68;101869.81;5072907;28;19913;-36
2022/07/30 05:31:54;;;;;;;;;;;;;;;16.89;78.26;101870.72;5072966;28;19970;-36
2022/07/30 05:34:19;;;;;;;;;;;;;;;16.98;78.49;101873.84;5073485;28;20395;-36
2022/07/30 05:36:44;;;;;;;;;;;;;;;17.06;77.96;101875.34;5073575;28;20370;-36
2022/07/30 05:39:10;;;;;;;;;;;;;;;17.14;78.23;101883.16;5073021;28;20003;-36
2022/07/30 05:41:35;;;;;;;;;;;;;;;17.21;78.27;101881.88;5072160;28;20058;-36
2022/07/30 05:44:00;;;;;;;;;;;;;;;17.28;78.29;101881.72;5073386;28;19966;-36
2022/07/30 05:46:26;;;;;;;;;;;;;;;17.31;78.78;101886.66;5073890;28;19935;-36
2022/07/30 05:48:51;;;;;;;;;;;;;;;17.35;78.96;101881.53;5072947;28;20309;-36
2022/07/30 05:51:19;;;;;;;;;;;;;;;17.39;78.65;101886.25;5074007;28;19913;-36
2022/07/30 05:53:44;;;;;;;;;;;;;;;17.47;77.69;101887.72;5072962;28;19919;-35
2022/07/30 05:56:09;;;;;;;;;;;;;;;17.53;77.76;101894.09;5073033;28;20343;-35
2022/07/30 05:58:35;;;;;;;;;;;;;;;17.61;77.88;101891.75;5072838;28;19916;-35
2022/07/30 06:01:00;;;;;;;;;;;;;;;17.70;77.70;101895.69;5072904;28;19912;-35
2022/07/30 06:03:25;;;;;;;;;;;;;;;17.78;77.57;101889.00;5072996;28;19918;-35
2022/07/30 06:05:50;;;;;;;;;;;;;;;17.83;79.52;101894.53;5072906;28;19913;-36
2022/07/30 06:08:16;;;;;;;;;;;;;;;17.87;77.72;101900.34;5072880;28;19923;-36
2022/07/30 06:10:41;;;;;;;;;;;;;;;17.93;77.94;101904.78;5073013;28;19912;-36
2022/07/30 06:13:06;;;;;;;;;;;;;;;17.97;77.70;101901.28;5072714;28;19972;-36
2022/07/30 06:15:31;;;;;;;;;;;;;;;18.01;77.82;101896.97;5072503;28;20391;-36
2022/07/30 06:17:56;;;;;;;;;;;;;;;18.08;77.68;101899.50;5072681;28;19966;-36
2022/07/30 06:20:22;;;;;;;;;;;;;;;18.13;76.82;101910.50;5073070;28;19919;-36
2022/07/30 06:22:47;;;;;;;;;;;;;;;18.19;77.14;101904.00;5073180;28;20272;-36
2022/07/30 06:25:12;;;;;;;;;;;;;;;18.22;77.20;101906.25;5072720;28;20015;-36
2022/07/30 06:27:38;;;;;;;;;;;;;;;18.27;77.15;101902.72;5071205;28;20354;-36
2022/07/30 06:30:03;;;;;;;;;;;;;;;18.31;78.11;101911.28;5072854;28;19967;-36
2022/07/30 06:32:29;;;;;;;;;;;;;;;18.35;78.24;101905.03;5072565;28;20433;-36
2022/07/30 06:34:54;;;;;;;;;;;;;;;18.40;76.85;101912.47;5072835;28;19940;-36
2022/07/30 06:37:19;;;;;;;;;;;;;;;18.41;78.20;101912.19;5072673;28;19959;-36
2022/07/30 06:39:45;;;;;;;;;;;;;;;18.42;78.65;101913.03;5072738;28;19935;-36
2022/07/30 06:42:10;;;;;;;;;;;;;;;18.50;77.51;101916.13;5075825;28;19912;-36
2022/07/30 06:44:35;;;;;;;;;;;;;;;18.56;77.51;101911.53;5076644;28;19912;-36
2022/07/30 06:47:00;;;;;;;;;;;;;;;18.60;78.48;101918.16;5076191;28;20280;-36
2022/07/30 06:49:25;;;;;;;;;;;;;;;18.64;77.58;101912.97;5075746;28;19913;-36
2022/07/30 06:51:51;;;;;;;;;;;;;;;18.74;77.21;101913.94;5075901;28;19920;-35
2022/07/30 06:54:16;;;;;;;;;;;;;;;18.78;76.58;101912.31;5076470;28;19919;-36
2022/07/30 06:56:41;;;;;;;;;;;;;;;18.80;76.50;101913.97;5076142;28;19916;-36
2022/07/30 06:59:07;;;;;;;;;;;;;;;18.87;76.50;101911.84;5075769;28;19924;-36
2022/07/30 07:01:32;;;;;;;;;;;;;;;18.88;76.41;101911.56;5075928;28;20336;-36
2022/07/30 07:03:57;;;;;;;;;;;;;;;18.96;76.38;101908.38;5075844;28;19955;-36
2022/07/30 07:06:22;;;;;;;;;;;;;;;19.03;75.77;101913.63;5076324;28;19928;-36
2022/07/30 07:08:47;;;;;;;;;;;;;;;19.04;75.68;101907.91;5075784;28;20019;-36
2022/07/30 07:11:13;;;;;;;;;;;;;;;19.04;74.95;101915.28;5058059;28;19922;-37
2022/07/30 07:13:38;;;;;;;;;;;;;;;18.95;75.08;101923.16;5076033;28;19919;-36
2022/07/30 07:16:03;;;;;;;;;;;;;;;18.94;74.81;101917.94;5075880;28;19912;-36
2022/07/30 07:18:29;;;;;;;;;;;;;;;19.03;75.33;101911.72;5075498;28;19996;-36
2022/07/30 07:20:54;;;;;;;;;;;;;;;19.08;74.56;101913.69;5075804;28;20007;-36
2022/07/30 07:23:19;;;;;;;;;;;;;;;19.09;74.48;101914.50;5075695;28;19912;-36
2022/07/30 07:25:44;;;;;;;;;;;;;;;19.09;74.27;101922.72;5075486;28;19999;-36
2022/07/30 07:28:10;;;;;;;;;;;;;;;19.01;73.60;101915.81;5075109;28;19958;-36
2022/07/30 07:30:35;;;;;;;;;;;;;;;19.09;73.82;101922.72;5073842;28;20053;-36
2022/07/30 07:33:00;;;;;;;;;;;;;;;19.10;73.57;101924.38;5075157;28;20380;-36
2022/07/30 07:35:25;;;;;;;;;;;;;;;19.17;73.82;101919.50;5075171;28;20000;-36
2022/07/30 07:37:51;;;;;;;;;;;;;;;19.23;73.48;101916.53;5075860;28;19913;-36
2022/07/30 07:40:16;;;;;;;;;;;;;;;19.29;72.62;101920.97;5075785;28;19912;-36
2022/07/30 07:42:42;;;;;;;;;;;;;;;19.35;71.48;101921.00;5075132;28;19913;-36
2022/07/30 07:45:07;;;;;;;;;;;;;;;19.42;72.03;101922.44;5075210;28;19912;-36
2022/07/30 07:47:45;;;;;;;;;;;;;;;19.60;71.71;101914.88;5075302;28;19924;-36
2022/07/30 07:50:13;;;;;;;;;;;;;;;19.76;70.89;101917.47;5075712;28;19912;-36
2022/07/30 07:52:39;;;;;;;;;;;;;;;19.88;70.23;101922.72;5073634;28;19912;-36
2022/07/30 07:55:06;;;;;;;;;;;;;;;19.95;70.40;101930.69;5074871;28;20405;-36
2022/07/30 07:57:36;;;;;;;;;;;;;;;19.99;69.82;101926.31;5074600;28;19916;-36
2022/07/30 08:00:03;;;;;;;;;;;;;;;20.06;68.85;101919.50;5075063;28;20279;-36
2022/07/30 08:02:28;;;;;;;;;;;;;;;20.11;69.51;101924.19;5074704;28;19934;-36
2022/07/30 08:04:53;;;;;;;;;;;;;;;20.07;68.81;101917.59;5074684;28;19995;-37
2022/07/30 08:07:18;;;;;;;;;;;;;;;20.00;68.36;101917.00;5074609;28;19920;-36
2022/07/30 08:09:44;;;;;;;;;;;;;;;20.01;69.10;101913.19;5074355;28;19913;-36
2022/07/30 08:12:09;;;;;;;;;;;;;;;20.05;69.41;101915.09;5074560;28;19947;-36
2022/07/30 08:14:34;;;;;;;;;;;;;;;20.10;67.15;101922.53;5075001;28;19980;-36
2022/07/30 08:16:59;;;;;;;;;;;;;;;20.02;66.50;101920.31;5074442;28;20279;-36
2022/07/30 08:19:24;;;;;;;;;;;;;;;19.98;67.80;101920.00;5074109;28;19912;-36
2022/07/30 08:21:50;;;;;;;;;;;;;;;20.06;67.38;101915.94;5074063;28;19913;-36
2022/07/30 08:24:15;;;;;;;;;;;;;;;20.19;67.43;101920.09;5074307;28;19912;-36
2022/07/30 08:26:40;;;;;;;;;;;;;;;20.29;66.13;101925.63;5074521;28;19948;-36
2022/07/30 08:29:06;;;;;;;;;;;;;;;20.41;66.16;101928.13;5074162;28;19913;-36
2022/07/30 08:31:31;;;;;;;;;;;;;;;20.45;65.74;101924.56;5074479;28;19913;-36
2022/07/30 08:33:56;;;;;;;;;;;;;;;20.48;64.97;101913.06;5074161;28;19913;-36
2022/07/30 08:36:22;;;;;;;;;;;;;;;20.53;64.28;101918.56;5074881;28;19912;-36
2022/07/30 08:38:47;;;;;;;;;;;;;;;20.60;65.25;101918.31;5073833;28;19912;-36
2022/07/30 08:41:12;;;;;;;;;;;;;;;20.64;65.21;101915.81;5074516;28;20011;-36
2022/07/30 08:43:38;;;;;;;;;;;;;;;20.78;65.45;101917.78;5073643;28;20034;-37
2022/07/30 08:46:04;;;;;;;;;;;;;;;20.99;64.25;101926.06;5073563;28;20306;-36
2022/07/30 08:48:29;;;;;;;;;;;;;;;21.14;64.41;101915.03;5074082;28;19913;-36
2022/07/30 08:50:55;;;;;;;;;;;;;;;21.21;62.50;101912.81;5074032;28;20007;-36
2022/07/30 08:53:20;;;;;;;;;;;;;;;21.29;62.79;101916.97;5072613;28;19919;-36
2022/07/30 08:55:46;;;;;;;;;;;;;;;21.47;62.77;101919.16;5074619;28;19924;-36
2022/07/30 08:58:22;;;;;;;;;;;;;;;21.65;62.96;101917.72;5074606;28;19923;-37
2022/07/30 09:00:48;;;;;;;;;;;;;;;21.84;61.09;101913.25;5074156;28;19912;-36
2022/07/30 09:03:13;;;;;;;;;;;;;;;21.96;59.86;101920.38;5073090;28;19923;-36
2022/07/30 09:05:38;;;;;;;;;;;;;;;22.07;57.65;101914.56;5074161;28;19983;-36
2022/07/30 09:08:04;;;;;;;;;;;;;;;22.07;55.09;101905.47;5073623;28;20429;-36
2022/07/30 09:10:29;;;;;;;;;;;;;;;22.07;57.29;101911.81;5074201;28;19918;-36
2022/07/30 09:12:54;;;;;;;;;;;;;;;22.17;58.51;101912.88;5061810;28;19924;-36
2022/07/30 09:15:20;;;;;;;;;;;;;;;22.27;56.99;101916.41;5071785;28;19912;-36
2022/07/30 09:18:05;;;;;;;;;;;;;;;22.38;57.25;101910.84;5073370;28;20287;-36
2022/07/30 09:20:34;;;;;;;;;;;;;;;22.46;57.79;101916.59;5073123;28;20444;-36
2022/07/30 09:23:00;;;;;;;;;;;;;;;22.43;54.83;101919.06;5072211;28;19924;-36
2022/07/30 09:25:36;;;;;;;;;;;;;;;22.53;56.53;101919.84;5073409;28;19912;-35
2022/07/30 09:28:02;;;;;;;;;;;;;;;22.73;54.57;101929.06;5082198;28;19919;-35
2022/07/30 09:30:42;;;;;;;;;;;;;;;22.83;55.62;101927.06;5072398;28;19916;-35
2022/07/30 09:33:07;;;;;;;;;;;;;;;22.99;54.59;101925.06;5067542;28;19916;-35
2022/07/30 09:35:33;;;;;;;;;;;;;;;22.98;52.88;101936.34;5093623;28;19916;-35
2022/07/30 09:37:59;;;;;;;;;;;;;;;23.10;54.10;101928.56;5057041;28;19913;-35
2022/07/30 09:40:24;;;;;;;;;;;;;;;23.22;52.35;101926.22;5062691;28;19916;-36
2022/07/30 09:43:00;;;;;;;;;;;;;;;23.03;49.15;101922.53;5058179;28;19935;-36
2022/07/30 09:45:25;;;;;;;;;;;;;;;23.20;52.05;101917.41;5052915;28;20368;-36
2022/07/30 09:47:50;;;;;;;;;;;;;;;23.37;52.93;101920.53;5052833;28;19971;-37
2022/07/30 09:50:18;;;;;;;;;;;;;;;23.54;51.60;101916.53;5053409;28;20311;-37
2022/07/30 09:52:44;;;;;;;;;;;;;;;23.65;50.23;101918.09;5053829;28;19979;-36
2022/07/30 09:55:10;;;;;;;;;;;;;;;23.52;48.05;101908.56;5053581;28;19913;-36
2022/07/30 09:57:52;;;;;;;;;;;;;;;23.55;49.78;101909.88;5053118;28;20379;-36
2022/07/30 10:00:19;;;;;;;;;;;;;;;23.68;50.41;101909.22;5060825;28;19917;-37
2022/07/30 10:02:46;;;;;;;;;;;;;;;23.87;51.31;101918.41;5071174;28;19967;-37
2022/07/30 10:05:13;;;;;;;;;;;;;;;24.05;50.28;101904.91;5072490;28;19923;-36
2022/07/30 10:07:45;;;;;;;;;;;;;;;24.14;49.73;101898.41;5072635;28;19912;-37
2022/07/30 10:10:11;;;;;;;;;;;;;;;24.11;48.98;101900.97;5072680;28;19928;-37
2022/07/30 10:12:36;;;;;;;;;;;;;;;24.26;49.29;101900.75;5071761;28;19912;-36
2022/07/30 10:15:03;;;;;;;;;;;;;;;24.48;50.20;101891.06;5073112;28;19919;-36
2022/07/30 10:17:30;;;;;;;;;;;;;;;24.69;49.66;101897.91;5077141;28;19920;-37
2022/07/30 10:19:56;;;;;;;;;;;;;;;24.80;47.54;101896.66;5073935;28;20018;-37
2022/07/30 10:22:21;;;;;;;;;;;;;;;24.80;48.43;101891.13;5077579;28;19920;-36
2022/07/30 10:24:46;;;;;;;;;;;;;;;24.86;47.99;101887.13;5074936;28;19920;-37
2022/07/30 10:27:12;;;;;;;;;;;;;;;24.89;47.94;101892.06;5077373;28;19932;-37
2022/07/30 10:29:40;;;;;;;;;;;;;;;24.98;49.77;101897.72;5075339;28;19969;-37
2022/07/30 10:32:05;;;;;;;;;;;;;;;25.08;48.70;101900.34;5076974;28;19912;-36
2022/07/30 10:34:31;;;;;;;;;;;;;;;25.18;48.95;101893.78;5070456;28;19924;-36
2022/07/30 10:36:59;;;;;;;;;;;;;;;25.08;46.22;101899.50;5056487;28;20284;-36
2022/07/30 10:39:26;;;;;;;;;;;;;;;25.09;46.36;101901.19;5057250;28;20364;-37
2022/07/30 10:41:51;;;;;;;;;;;;;;;25.17;45.01;101900.47;5056142;28;20259;-37
2022/07/30 10:44:19;;;;;;;;;;;;;;;25.30;46.13;101891.38;5057125;28;20003;-37
2022/07/30 10:46:58;;;;;;;;;;;;;;;25.39;47.56;101897.84;5070752;28;19916;-37
2022/07/30 10:49:24;;;;;;;;;;;;;;;25.39;44.00;101897.84;5056274;28;20383;-37
2022/07/30 10:51:53;;;;;;;;;;;;;;;25.41;46.50;101901.13;5056537;28;19913;-37
2022/07/30 10:54:38;;;;;;;;;;;;;;;25.41;43.81;101895.59;5056237;28;20249;-37
2022/07/30 10:57:14;;;;;;;;;;;;;;;25.42;45.52;101899.97;5056585;28;19967;-37
2022/07/30 10:59:48;;;;;;;;;;;;;;;25.61;47.22;101894.34;5056534;28;19974;-36
2022/07/30 11:02:14;;;;;;;;;;;;;;;25.67;46.23;101897.88;5056119;28;20043;-36
2022/07/30 11:04:40;;;;;;;;;;;;;;;25.81;44.56;101901.47;5055949;28;19912;-36
2022/07/30 11:07:20;;;;;;;;;;;;;;;25.93;46.39;101899.00;5055604;28;19918;-36
2022/07/30 11:09:46;;;;;;;;;;;;;;;26.09;45.47;101887.59;5056124;28;20237;-37
2022/07/30 11:12:11;;;;;;;;;;;;;;;26.02;43.94;101893.56;5055638;28;19919;-36
2022/07/30 11:14:45;;;;;;;;;;;;;;;25.93;42.46;101893.47;5055574;28;20298;-36
2022/07/30 11:17:13;;;;;;;;;;;;;;;25.91;43.93;101900.44;5056158;28;19913;-37
2022/07/30 11:19:57;;;;;;;;;;;;;;;26.04;44.07;101904.34;5055952;28;19916;-36
2022/07/30 11:22:37;;;;;;;;;;;;;;;26.15;45.13;101894.66;5055860;28;20153;-37
2022/07/30 11:25:23;;;;;;;;;;;;;;;26.29;43.52;101889.91;5056283;28;19916;-36
2022/07/30 11:27:49;;;;;;;;;;;;;;;26.36;43.76;101889.50;5062255;28;19920;-37
2022/07/30 11:30:14;;;;;;;;;;;;;;;26.43;44.69;101887.94;5055834;28;19966;-37
2022/07/30 11:32:50;;;;;;;;;;;;;;;26.56;45.23;101886.25;5055486;28;19921;-37
2022/07/30 11:35:23;;;;;;;;;;;;;;;26.69;44.27;101877.06;5055856;28;20260;-37
2022/07/30 11:37:57;;;;;;;;;;;;;;;26.85;43.89;101871.94;5055895;28;19912;-37
2022/07/30 11:40:23;;;;;;;;;;;;;;;27.05;43.69;101875.34;5055738;28;19999;-37
2022/07/30 11:42:49;;;;;;;;;;;;;;;27.22;44.79;101872.66;5054866;28;19963;-37
2022/07/30 11:45:14;;;;;;;;;;;;;;;27.39;43.37;101869.16;5055926;28;19919;-37
2022/07/30 11:47:49;;;;;;;;;;;;;;;27.44;43.56;101872.63;5054821;28;20319;-37
2022/07/30 11:50:24;;;;;;;;;;;;;;;27.48;43.56;101872.00;5055190;28;19912;-37
2022/07/30 11:52:49;;;;;;;;;;;;;;;27.41;41.96;101864.09;5054974;28;19913;-37
2022/07/30 11:55:21;;;;;;;;;;;;;;;27.28;42.20;101865.84;5054440;28;19913;-37
2022/07/30 11:57:46;;;;;;;;;;;;;;;27.25;43.69;101874.81;5055038;28;19964;-37
2022/07/30 12:00:12;;;;;;;;;;;;;;;27.30;43.25;101873.84;5054858;28;19955;-37
2022/07/30 12:02:37;;;;;;;;;;;;;;;27.40;42.44;101874.38;5054778;28;20003;-37
2022/07/30 12:05:03;;;;;;;;;;;;;;;27.54;41.81;101881.81;5055031;28;19916;-37
2022/07/30 12:07:28;;;;;;;;;;;;;;;27.42;42.32;101879.63;5054589;28;20424;-37
2022/07/30 12:10:10;;;;;;;;;;;;;;;27.32;41.35;101880.72;5054830;28;19913;-37
2022/07/30 12:12:35;;;;;;;;;;;;;;;27.28;42.38;101884.44;5056170;28;20400;-37
2022/07/30 12:15:00;;;;;;;;;;;;;;;27.19;43.06;101889.97;5054624;28;19990;-37
2022/07/30 12:17:41;;;;;;;;;;;;;;;27.10;42.72;101875.22;5054520;28;19913;-36
2022/07/30 12:20:16;;;;;;;;;;;;;;;27.04;43.07;101877.28;5054946;28;19917;-37
2022/07/30 12:22:42;;;;;;;;;;;;;;;27.01;43.15;101877.91;5055200;28;19916;-37
2022/07/30 12:25:07;;;;;;;;;;;;;;;26.91;43.71;101884.56;5054443;28;19934;-37
2022/07/30 12:27:33;;;;;;;;;;;;;;;26.86;43.92;101892.19;5054012;28;19970;-37
2022/07/30 12:29:58;;;;;;;;;;;;;;;26.72;42.84;101886.69;5054368;28;20002;-37
2022/07/30 12:32:23;;;;;;;;;;;;;;;26.66;43.38;101882.41;5055334;28;19986;-37
2022/07/30 12:34:54;;;;;;;;;;;;;;;26.66;42.63;101887.97;5054545;28;19912;-37
2022/07/30 12:37:20;;;;;;;;;;;;;;;26.66;43.24;101882.41;5057754;28;20011;-37